Time;durP1;ratioP1;P1;durP2;ratioP2;P2;SDS_P1;SDS_P2;PMS_P1;PMS_P2;Temp;Humidity;BMP_temperature;BMP_pressure;BME280_temperature;BME280_humidity;BME280_pressure;Samples;Min_cycle;Max_cycle;Signal;HPM_P1;HPM_P2
2023/07/27 00:07:56;;;;;;;1.57;0.80;;;14.00;99.90;;;;;;1954604;72;27146;-89
2023/07/27 00:25:24;;;;;;;2.07;1.00;;;13.90;99.90;;;;;;1836015;77;27253;-89
2023/07/27 00:30:56;;;;;;;2.90;1.00;;;13.80;99.90;;;;;;1917032;72;27028;-89
2023/07/27 00:33:45;;;;;;;2.27;1.30;;;13.70;99.90;;;;;;1893413;74;25180;-89
2023/07/27 00:36:35;;;;;;;1.73;0.90;;;13.80;99.90;;;;;;1879757;74;25227;-89
2023/07/27 00:39:24;;;;;;;1.60;0.90;;;13.60;99.90;;;;;;1854434;75;25233;-89
2023/07/27 00:42:39;;;;;;;4.67;1.23;;;13.70;99.90;;;;;;1830779;75;25310;-89
2023/07/27 00:45:30;;;;;;;3.03;0.97;;;13.70;99.90;;;;;;1815514;77;25292;-89
2023/07/27 00:48:42;;;;;;;3.10;1.00;;;13.70;99.90;;;;;;1835303;77;25279;-89
2023/07/27 00:55:35;;;;;;;5.03;1.17;;;13.80;99.90;;;;;;1977476;71;26987;-89
2023/07/27 00:58:30;;;;;;;2.93;0.90;;;13.70;99.90;;;;;;1924802;73;25330;-90
2023/07/27 01:01:21;;;;;;;3.23;0.87;;;13.70;99.90;;;;;;1934290;73;25264;-90
2023/07/27 01:04:14;;;;;;;1.53;0.90;;;13.70;99.90;;;;;;1911838;73;25173;-90
2023/07/27 01:07:29;;;;;;;3.13;0.90;;;13.70;99.90;;;;;;1974495;72;25135;-90
2023/07/27 01:10:32;;;;;;;3.90;1.10;;;13.70;99.90;;;;;;1963030;72;25219;-90
2023/07/27 01:29:10;;;;;;;1.43;0.73;;;13.80;99.90;;;;;;1999562;71;26287;-90
2023/07/27 02:14:37;;;;;;;2.03;0.77;;;13.60;99.90;;;;;;1980968;70;25231;-90
2023/07/27 02:17:32;;;;;;;3.47;1.00;;;13.60;99.90;;;;;;1958692;72;25288;-90
2023/07/27 02:20:23;;;;;;;4.53;1.00;;;13.60;99.90;;;;;;1971685;71;25302;-90
2023/07/27 02:36:56;;;;;;;2.90;0.97;;;13.50;99.90;;;;;;1995247;71;27051;-88
2023/07/27 02:43:04;;;;;;;2.57;1.20;;;13.40;99.90;;;;;;2070404;68;27496;-89
2023/07/27 02:45:59;;;;;;;1.53;1.20;;;13.40;99.90;;;;;;1962999;71;25196;-88
2023/07/27 02:48:48;;;;;;;5.17;1.00;;;13.30;99.90;;;;;;2000730;70;25143;-89
2023/07/27 02:54:38;;;;;;;1.73;1.10;;;13.40;99.90;;;;;;1950130;72;28860;-88
2023/07/27 02:57:28;;;;;;;4.10;1.13;;;13.30;99.90;;;;;;1926722;73;25290;-88
2023/07/27 03:00:18;;;;;;;4.17;1.30;;;13.30;99.90;;;;;;1930288;73;25785;-88
2023/07/27 03:03:08;;;;;;;2.13;1.10;;;13.30;99.90;;;;;;1921980;73;25217;-88
2023/07/27 03:06:20;;;;;;;3.90;1.10;;;13.30;99.90;;;;;;1920372;73;25304;-90
2023/07/27 03:09:13;;;;;;;2.13;1.40;;;13.30;99.90;;;;;;1900339;73;25764;-89
2023/07/27 03:12:06;;;;;;;3.93;1.10;;;13.30;99.90;;;;;;1917654;73;25251;-88
2023/07/27 03:37:48;;;;;;;1.80;1.40;;;13.20;99.90;;;;;;1989279;70;25266;-89
2023/07/27 03:41:17;;;;;;;3.60;1.00;;;13.20;99.90;;;;;;2000494;70;25209;-89
2023/07/27 03:47:42;;;;;;;2.17;0.90;;;13.30;99.90;;;;;;1949958;72;27034;-90
2023/07/27 03:50:34;;;;;;;2.70;1.10;;;13.30;99.90;;;;;;1927592;73;25299;-89
2023/07/27 03:53:48;;;;;;;2.57;1.07;;;13.20;99.90;;;;;;1910768;73;25817;-89
2023/07/27 03:56:48;;;;;;;2.77;1.10;;;13.20;99.90;;;;;;1936767;72;25216;-89
2023/07/27 03:59:55;;;;;;;3.57;1.13;;;13.20;99.90;;;;;;1881249;75;25701;-89
2023/07/27 04:02:51;;;;;;;1.27;1.10;;;13.20;99.90;;;;;;1875825;75;25754;-88
2023/07/27 04:06:09;;;;;;;1.20;1.00;;;13.20;99.90;;;;;;1908418;73;25191;-88
2023/07/27 04:09:08;;;;;;;2.63;1.20;;;13.30;99.90;;;;;;1873005;76;25558;-88
2023/07/27 04:12:23;;;;;;;3.20;1.20;;;13.30;99.90;;;;;;1902181;75;25183;-88
2023/07/27 04:15:20;;;;;;;8.43;1.50;;;13.30;99.90;;;;;;1865496;75;25337;-88
2023/07/27 04:18:10;;;;;;;3.97;1.10;;;13.30;99.90;;;;;;1893841;75;25133;-88
2023/07/27 04:21:02;;;;;;;3.70;1.20;;;13.30;99.90;;;;;;1879912;75;25289;-88
2023/07/27 04:23:54;;;;;;;1.00;0.90;;;13.30;99.90;;;;;;1837060;76;25404;-88
2023/07/27 04:44:07;;;;;;;5.30;0.90;;;13.40;99.90;;;;;;1929102;72;27739;-89
2023/07/27 04:47:24;;;;;;;1.77;0.97;;;13.50;99.90;;;;;;1890781;75;25391;-89
2023/07/27 05:03:57;;;;;;;1.60;0.90;;;13.40;99.90;;;;;;1888268;74;27029;-89
2023/07/27 05:07:29;;;;;;;2.73;1.00;;;13.60;99.90;;;;;;1831808;76;25821;-89
2023/07/27 06:13:12;;;;;;;2.17;0.80;;;14.00;99.90;;;;;;1947612;72;26225;-90
2023/07/27 06:23:03;;;;;;;1.57;0.73;;;15.10;99.90;;;;;;1911087;73;25206;-90
2023/07/27 06:26:30;;;;;;;1.07;0.70;;;15.00;99.90;;;;;;1884342;74;25626;-90
2023/07/27 07:00:39;;;;;;;0.97;0.70;;;14.80;99.90;;;;;;1922710;72;27073;-90
2023/07/27 10:06:32;;;;;;;1.83;1.37;;;14.90;99.90;;;;;;1944564;72;28940;-89
2023/07/27 11:15:42;;;;;;;2.50;1.60;;;16.70;99.90;;;;;;1941110;72;28138;-88
2023/07/27 11:41:53;;;;;;;1.63;1.00;;;15.10;99.90;;;;;;1908641;71;25218;-90
2023/07/27 11:45:22;;;;;;;0.80;0.80;;;15.20;99.90;;;;;;1937644;71;25162;-90
2023/07/27 11:56:14;;;;;;;3.03;1.00;;;15.50;99.90;;;;;;1946479;71;25735;-90
2023/07/27 11:59:59;;;;;;;1.27;1.07;;;15.40;99.90;;;;;;1948298;72;25133;-90
2023/07/27 12:35:21;;;;;;;1.73;1.10;;;15.70;99.90;;;;;;1868895;75;25278;-89
2023/07/27 13:08:55;;;;;;;1.33;1.23;;;15.90;99.90;;;;;;1938018;72;25247;-89
2023/07/27 14:05:32;;;;;;;2.10;1.30;;;14.80;99.90;;;;;;1952605;72;28148;-89
2023/07/27 16:12:32;;;;;;;1.03;1.03;;;16.30;99.90;;;;;;1908627;73;25187;-92
2023/07/27 17:03:51;;;;;;;0.90;0.90;;;16.80;99.90;;;;;;2046358;69;27051;-89
2023/07/27 17:06:40;;;;;;;1.20;1.00;;;16.80;99.90;;;;;;1991020;71;25767;-88
2023/07/27 17:09:29;;;;;;;1.20;1.10;;;16.70;99.90;;;;;;1970922;71;25207;-89
2023/07/27 17:12:21;;;;;;;1.63;1.03;;;16.80;99.90;;;;;;1965344;71;25252;-89
2023/07/27 17:15:11;;;;;;;3.00;0.90;;;16.90;99.90;;;;;;1989554;71;25587;-87
2023/07/27 17:18:00;;;;;;;1.30;1.03;;;16.80;99.90;;;;;;1977008;71;25246;-89
2023/07/27 17:20:48;;;;;;;1.20;0.93;;;16.90;99.90;;;;;;1993471;71;25661;-89
2023/07/27 17:23:38;;;;;;;2.13;0.87;;;16.90;99.90;;;;;;1983926;71;25737;-89
2023/07/27 17:29:08;;;;;;;1.10;1.10;;;17.00;99.90;;;;;;1987453;71;26966;-88
2023/07/27 17:31:57;;;;;;;1.13;0.97;;;16.90;99.90;;;;;;1955400;72;25263;-89
2023/07/27 17:37:30;;;;;;;1.10;1.10;;;16.90;99.90;;;;;;1935404;72;27081;-88
2023/07/27 17:40:20;;;;;;;1.23;1.13;;;16.90;99.90;;;;;;1906778;73;25213;-89
2023/07/27 17:43:09;;;;;;;1.10;1.00;;;16.90;99.90;;;;;;1863446;75;25185;-90
2023/07/27 17:45:58;;;;;;;1.00;1.00;;;16.80;99.90;;;;;;1880780;75;25754;-90
2023/07/27 18:05:27;;;;;;;0.87;0.87;;;16.40;99.90;;;;;;1977188;71;26994;-89
2023/07/27 18:08:17;;;;;;;1.00;0.90;;;16.40;99.90;;;;;;2000863;70;25641;-89
2023/07/27 18:11:10;;;;;;;0.90;0.90;;;16.40;99.90;;;;;;2003234;70;25254;-88
2023/07/27 18:13:59;;;;;;;1.00;0.90;;;16.50;99.90;;;;;;2007783;70;25249;-88
2023/07/27 18:20:31;;;;;;;0.90;0.90;;;16.60;99.90;;;;;;1968298;71;27142;-89
2023/07/27 18:23:21;;;;;;;1.50;0.90;;;16.80;99.90;;;;;;1989936;70;25167;-89
2023/07/27 18:26:16;;;;;;;0.73;0.73;;;16.90;99.90;;;;;;1992445;70;25221;-89
2023/07/27 18:29:07;;;;;;;0.80;0.80;;;17.00;99.90;;;;;;2002469;70;25330;-90
2023/07/27 18:35:52;;;;;;;1.37;1.10;;;17.20;99.90;;;;;;1989454;71;27298;-89
2023/07/27 18:38:41;;;;;;;1.10;0.80;;;17.20;99.90;;;;;;1924540;73;25233;-89
2023/07/27 18:54:57;;;;;;;1.60;1.13;;;17.40;99.90;;;;;;1904369;72;27225;-89
2023/07/27 19:00:26;;;;;;;1.23;1.03;;;16.60;99.90;;;;;;1934193;72;27792;-89
2023/07/27 19:03:14;;;;;;;2.23;1.00;;;16.50;99.90;;;;;;1900386;74;25794;-89
2023/07/27 19:06:03;;;;;;;1.03;0.93;;;16.40;99.90;;;;;;1887629;74;25168;-89
2023/07/27 19:08:52;;;;;;;1.20;1.10;;;16.30;99.90;;;;;;1871106;75;25275;-89
2023/07/27 19:11:41;;;;;;;1.10;1.10;;;16.30;99.90;;;;;;1872156;76;25242;-89
2023/07/27 19:14:30;;;;;;;1.43;1.10;;;16.20;99.90;;;;;;1866118;76;25241;-89
2023/07/27 19:17:21;;;;;;;1.20;1.10;;;16.20;99.90;;;;;;1867490;75;25269;-89
2023/07/27 19:23:05;;;;;;;1.20;1.10;;;16.00;99.90;;;;;;1953096;72;27491;-89
2023/07/27 19:40:32;;;;;;;2.00;1.40;;;15.80;99.90;;;;;;1965261;71;27081;-89
2023/07/27 19:56:37;;;;;;;1.60;1.50;;;15.30;99.90;;;;;;1918852;73;27118;-89
2023/07/27 20:02:08;;;;;;;2.83;1.60;;;14.60;99.90;;;;;;1919316;72;27006;-89
2023/07/27 20:29:35;;;;;;;11.23;3.50;;;14.20;99.90;;;;;;1932652;72;26929;-89
2023/07/27 20:32:23;;;;;;;4.73;2.70;;;13.60;99.90;;;;;;1877127;75;25250;-89
2023/07/27 20:38:11;;;;;;;6.20;2.80;;;13.50;99.90;;;;;;1960666;72;26957;-89
2023/07/27 20:43:50;;;;;;;34.37;3.67;;;13.30;99.90;;;;;;1927416;72;27142;-89
2023/07/27 20:46:38;;;;;;;6.07;3.20;;;13.20;99.90;;;;;;1869866;75;25842;-89
2023/07/27 20:49:28;;;;;;;8.33;2.87;;;13.10;99.90;;;;;;1914104;73;25562;-89
2023/07/27 20:52:17;;;;;;;5.03;3.40;;;13.10;99.90;;;;;;1861917;75;25732;-89
2023/07/27 20:55:08;;;;;;;4.40;3.30;;;12.90;99.90;;;;;;1851475;76;25736;-89
2023/07/27 20:57:57;;;;;;;5.60;3.80;;;12.70;99.90;;;;;;1907292;75;25262;-89
2023/07/27 21:00:47;;;;;;;4.73;3.10;;;12.60;99.90;;;;;;1914976;73;25280;-90
2023/07/27 21:03:36;;;;;;;6.23;3.13;;;12.50;99.90;;;;;;1854017;75;25308;-88
2023/07/27 21:06:25;;;;;;;3.40;3.10;;;12.50;99.90;;;;;;1842409;77;25759;-89
2023/07/27 21:09:14;;;;;;;7.77;3.30;;;12.50;99.90;;;;;;1847128;76;25271;-89
2023/07/27 21:12:04;;;;;;;3.93;2.80;;;12.50;99.90;;;;;;1845718;76;25306;-90
2023/07/27 21:14:54;;;;;;;6.60;3.30;;;12.50;99.90;;;;;;1838989;76;25322;-90
2023/07/27 21:17:42;;;;;;;12.93;3.40;;;12.50;99.90;;;;;;1908514;73;25222;-89
2023/07/27 21:20:31;;;;;;;7.27;4.10;;;12.40;99.90;;;;;;1872515;75;25363;-90
2023/07/27 21:23:20;;;;;;;5.07;3.57;;;12.40;99.90;;;;;;1841850;77;25283;-90
2023/07/27 21:26:09;;;;;;;6.17;3.60;;;12.30;99.90;;;;;;1871658;75;25340;-90
2023/07/27 21:29:00;;;;;;;6.37;3.50;;;12.30;99.90;;;;;;1855968;77;25254;-90
2023/07/27 21:31:49;;;;;;;5.70;3.70;;;12.30;99.90;;;;;;1918956;73;25205;-90
2023/07/27 21:34:38;;;;;;;4.93;3.40;;;12.30;99.90;;;;;;1870493;75;25254;-89
2023/07/27 21:37:26;;;;;;;7.60;3.37;;;12.20;99.90;;;;;;1870877;75;25297;-89
2023/07/27 21:40:15;;;;;;;7.83;3.20;;;12.10;99.90;;;;;;1867047;75;25631;-89
2023/07/27 21:43:04;;;;;;;5.60;2.80;;;12.10;99.90;;;;;;1825088;77;25307;-90
2023/07/27 21:45:55;;;;;;;4.33;2.80;;;11.90;99.90;;;;;;1820665;78;25280;-90
2023/07/27 21:48:45;;;;;;;3.87;2.87;;;11.70;99.90;;;;;;1895258;74;25688;-89
2023/07/27 21:51:34;;;;;;;3.37;2.73;;;11.60;99.90;;;;;;1887397;74;25258;-90
2023/07/27 21:54:23;;;;;;;3.73;2.77;;;11.60;99.90;;;;;;1909982;74;25571;-89
2023/07/27 21:57:12;;;;;;;4.80;3.10;;;11.60;99.90;;;;;;1881656;74;25194;-88
2023/07/27 22:00:02;;;;;;;3.53;3.20;;;11.50;99.90;;;;;;1879124;74;25229;-89
2023/07/27 22:02:51;;;;;;;8.33;3.27;;;11.40;99.90;;;;;;1888718;74;25365;-88
2023/07/27 22:08:22;;;;;;;4.23;2.93;;;11.40;99.90;;;;;;1911479;72;27549;-89
2023/07/27 22:11:11;;;;;;;4.63;2.83;;;11.30;99.90;;;;;;1903246;75;25257;-88
2023/07/27 22:13:59;;;;;;;6.90;3.10;;;11.30;99.90;;;;;;1902906;75;25652;-88
2023/07/27 22:16:48;;;;;;;7.30;3.00;;;11.20;99.90;;;;;;1912251;73;25184;-88
2023/07/27 22:19:37;;;;;;;4.07;3.00;;;11.20;99.90;;;;;;1908338;73;25749;-89
2023/07/27 22:22:26;;;;;;;12.13;2.73;;;11.20;99.90;;;;;;1910189;74;25780;-89
2023/07/27 22:25:15;;;;;;;13.10;2.60;;;11.20;99.90;;;;;;1891089;75;25198;-88
2023/07/27 22:28:03;;;;;;;7.03;2.50;;;11.20;99.90;;;;;;1900416;73;25732;-88
2023/07/27 22:30:52;;;;;;;7.80;2.60;;;11.30;99.90;;;;;;1911501;73;25221;-88
2023/07/27 22:33:40;;;;;;;4.07;3.07;;;11.20;99.90;;;;;;1913045;73;25901;-88
2023/07/27 22:36:29;;;;;;;3.60;2.33;;;11.10;99.90;;;;;;1897038;73;25159;-88
2023/07/27 22:39:18;;;;;;;4.73;2.60;;;11.00;99.90;;;;;;1897209;73;25352;-88
2023/07/27 22:42:07;;;;;;;5.70;2.77;;;11.00;99.90;;;;;;1895627;73;25348;-88
2023/07/27 22:44:56;;;;;;;3.03;2.17;;;10.80;99.90;;;;;;1906606;73;25323;-88
2023/07/27 22:47:45;;;;;;;6.60;2.67;;;10.80;99.90;;;;;;1884546;74;25719;-88
2023/07/27 22:50:34;;;;;;;3.97;2.27;;;10.70;99.90;;;;;;1870911;75;25283;-89
2023/07/27 22:53:23;;;;;;;3.83;2.43;;;10.70;99.90;;;;;;1867882;76;25730;-88
2023/07/27 22:56:13;;;;;;;2.73;2.43;;;10.70;99.90;;;;;;1843146;77;25763;-88
2023/07/27 22:59:01;;;;;;;8.37;2.20;;;10.60;99.90;;;;;;1821588;77;25376;-88
2023/07/27 23:01:50;;;;;;;4.93;2.60;;;10.60;99.90;;;;;;1848704;76;25666;-88
2023/07/27 23:04:38;;;;;;;3.83;2.37;;;10.50;99.90;;;;;;1847294;76;25276;-88
2023/07/27 23:07:27;;;;;;;5.43;2.60;;;10.50;99.90;;;;;;1835344;76;25337;-88
2023/07/27 23:10:16;;;;;;;5.37;2.27;;;10.50;99.90;;;;;;1865407;75;25320;-88
2023/07/27 23:13:04;;;;;;;9.37;2.70;;;10.50;99.90;;;;;;1829204;77;25235;-88
2023/07/27 23:15:55;;;;;;;2.90;2.40;;;10.50;99.90;;;;;;1821002;77;25320;-88
2023/07/27 23:18:44;;;;;;;12.30;2.67;;;10.40;99.90;;;;;;1806061;78;25219;-88
2023/07/27 23:21:34;;;;;;;6.87;2.43;;;10.40;99.90;;;;;;1859932;76;25694;-88
2023/07/27 23:24:23;;;;;;;6.37;2.27;;;10.40;99.90;;;;;;1899343;74;25256;-88
2023/07/27 23:27:11;;;;;;;2.23;2.03;;;10.40;99.90;;;;;;1918765;74;25701;-88
2023/07/27 23:30:00;;;;;;;8.10;2.53;;;10.40;99.90;;;;;;1907456;74;25209;-88
2023/07/27 23:50:23;;;;;;;4.50;2.20;;;10.30;99.90;;;;;;1930792;72;26988;-89
2023/07/27 23:53:13;;;;;;;3.00;2.23;;;10.20;99.90;;;;;;1883553;75;25297;-89
2023/07/27 23:56:05;;;;;;;4.83;2.20;;;10.20;99.90;;;;;;1894141;75;26296;-89
2023/07/27 23:58:58;;;;;;;3.20;2.27;;;10.20;99.90;;;;;;1891330;75;25302;-89
